Time;durP1;ratioP1;P1;durP2;ratioP2;P2;SDS_P1;SDS_P2;PMS_P1;PMS_P2;Temp;Humidity;BMP_temperature;BMP_pressure;BME280_temperature;BME280_humidity;BME280_pressure;Samples;Min_cycle;Max_cycle;Signal;HPM_P1;HPM_P2
2023/06/19 00:01:15;;;;;;;8.75;8.07;;;;;;;-144.30;73.29;84810.03;5112162;28;20195;-61
2023/06/19 00:03:42;;;;;;;8.50;8.00;;;;;;;-144.30;73.56;84837.88;5111981;28;20195;-61
2023/06/19 00:06:09;;;;;;;8.20;7.40;;;;;;;-144.30;73.70;84766.31;5112098;28;20201;-61
2023/06/19 00:08:36;;;;;;;8.05;7.30;;;;;;;-144.30;74.13;84835.88;5111123;28;20278;-61
2023/06/19 00:11:03;;;;;;;7.78;7.20;;;;;;;-144.30;74.55;84819.97;5112026;28;20205;-61
2023/06/19 00:13:33;;;;;;;9.13;8.20;;;;;;;-144.30;74.30;84855.75;5112012;28;20194;-60
2023/06/19 00:16:01;;;;;;;8.50;7.75;;;;;;;-144.30;74.47;84754.38;5111892;28;20198;-60
2023/06/19 00:18:28;;;;;;;8.38;7.78;;;;;;;-144.30;74.56;84851.78;5111783;28;20202;-61
2023/06/19 00:20:56;;;;;;;9.75;8.75;;;;;;;-144.30;74.76;84847.81;5111755;28;20230;-61
2023/06/19 00:23:23;;;;;;;8.85;8.07;;;;;;;-144.30;74.62;84847.81;5111796;28;20213;-60
2023/06/19 00:25:50;;;;;;;8.90;8.00;;;;;;;-144.30;74.97;84798.13;5111721;28;20310;-62
2023/06/19 00:28:19;;;;;;;8.65;7.93;;;;;;;-144.30;74.72;84859.72;5111520;28;20197;-61
2023/06/19 00:30:48;;;;;;;8.77;8.02;;;;;;;-144.30;74.89;84831.91;5111764;28;20589;-61
2023/06/19 00:33:15;;;;;;;9.25;8.40;;;;;;;-144.30;74.76;84827.94;5111404;28;20721;-57
2023/06/19 00:35:42;;;;;;;9.25;8.05;;;;;;;-144.30;74.66;84889.53;5111387;28;20622;-57
2023/06/19 00:38:08;;;;;;;9.13;8.52;;;;;;;-144.30;74.89;84796.13;5111559;28;20685;-57
2023/06/19 00:40:36;;;;;;;7.78;7.28;;;;;;;-144.30;74.67;84837.88;5110923;28;20226;-57
2023/06/19 00:43:03;;;;;;;11.02;7.88;;;;;;;-144.30;74.74;85281.13;5111189;28;20231;-57
2023/06/19 00:45:30;;;;;;;9.45;8.52;;;;;;;-144.30;74.77;84827.94;5111290;28;20320;-57
2023/06/19 00:48:00;;;;;;;8.38;7.63;;;;;;;-144.30;74.79;84867.69;5111286;27;20230;-58
2023/06/19 00:50:29;;;;;;;8.07;7.47;;;;;;;-144.30;74.40;84861.72;5111064;28;20195;-61
2023/06/19 00:52:56;;;;;;;8.40;7.68;;;;;;;-144.30;74.72;84831.91;5111268;28;20582;-59
2023/06/19 00:55:25;;;;;;;8.70;7.93;;;;;;;-144.30;74.79;84895.50;5110900;28;20259;-61
2023/06/19 00:57:53;;;;;;;8.93;8.25;;;;;;;-144.30;75.15;84887.56;5111219;28;20202;-58
2023/06/19 01:00:20;;;;;;;9.38;7.53;;;;;;;-144.30;74.84;84891.53;5111096;28;20725;-56
2023/06/19 01:02:47;;;;;;;8.65;7.95;;;;;;;-144.30;74.90;84786.19;5110874;28;20289;-61
2023/06/19 01:05:16;;;;;;;15.05;7.97;;;;;;;-144.30;75.07;84911.41;5110891;28;20186;-61
2023/06/19 01:07:53;;;;;;;9.02;8.15;;;;;;;-144.30;75.11;84897.50;5110419;28;20202;-57
2023/06/19 01:10:27;;;;;;;9.45;7.60;;;;;;;-144.30;75.07;84909.41;5110807;28;20225;-57
2023/06/19 01:12:59;;;;;;;9.88;7.63;;;;;;;-144.30;75.03;84825.94;5111062;28;20190;-61
2023/06/19 01:15:27;;;;;;;12.18;7.57;;;;;;;-144.30;74.78;84915.38;5110837;28;20685;-57
2023/06/19 01:17:56;;;;;;;8.95;8.20;;;;;;;-144.30;75.06;84915.38;5110743;28;20199;-57
2023/06/19 01:20:26;;;;;;;8.02;7.32;;;;;;;-144.30;74.72;84921.34;5111090;28;20232;-61
2023/06/19 01:22:56;;;;;;;8.38;7.00;;;;;;;-144.30;74.99;84903.47;5110636;28;20202;-61
2023/06/19 01:25:23;;;;;;;8.20;7.60;;;;;;;-144.30;74.83;84915.38;5110668;28;20194;-61
2023/06/19 01:27:51;;;;;;;8.20;7.50;;;;;;;-144.30;74.36;84887.56;5110488;28;20241;-61
2023/06/19 01:30:18;;;;;;;8.02;7.45;;;;;;;-144.30;74.65;84889.53;5110539;28;20203;-57
2023/06/19 01:32:57;;;;;;;7.32;6.72;;;;;;;-144.30;74.62;84923.34;5110316;28;20195;-57
2023/06/19 01:35:28;;;;;;;7.80;7.20;;;;;;;-144.30;74.36;84897.50;5110584;28;20277;-60
2023/06/19 01:37:57;;;;;;;8.38;7.40;;;;;;;-144.30;74.50;84905.44;5110283;28;20198;-62
2023/06/19 01:40:25;;;;;;;8.10;7.50;;;;;;;-144.30;74.17;84887.56;5110208;28;20248;-60
2023/06/19 01:42:54;;;;;;;8.60;7.63;;;;;;;-144.30;74.11;84931.28;5110903;28;20646;-61
2023/06/19 01:45:21;;;;;;;7.20;6.80;;;;;;;-144.30;74.38;84851.78;5110313;28;20194;-56
2023/06/19 01:47:48;;;;;;;7.68;6.95;;;;;;;-144.30;74.41;84917.38;5110019;28;20194;-57
2023/06/19 01:50:15;;;;;;;7.35;6.65;;;;;;;-144.30;74.41;84931.28;5110756;28;20670;-57
2023/06/19 01:52:43;;;;;;;7.25;6.45;;;;;;;-144.30;74.16;85122.09;5110222;28;20195;-62
2023/06/19 01:55:11;;;;;;;7.45;6.95;;;;;;;-144.30;73.75;84899.47;5110383;28;20186;-61
2023/06/19 01:57:38;;;;;;;7.78;7.15;;;;;;;-144.30;73.98;84947.19;5110146;28;20273;-60
2023/06/19 02:00:07;;;;;;;6.65;6.25;;;;;;;-144.30;73.64;84911.41;5110087;28;20634;-62
2023/06/19 02:02:34;;;;;;;7.28;6.85;;;;;;;-144.30;74.04;84927.31;5110294;28;20620;-61
2023/06/19 02:05:01;;;;;;;7.72;6.53;;;;;;;-144.30;73.83;84945.19;5110350;28;20294;-57
2023/06/19 02:07:28;;;;;;;7.95;6.93;;;;;;;-144.30;73.61;84897.50;5110251;28;20202;-58
2023/06/19 02:09:55;;;;;;;7.45;6.95;;;;;;;-144.30;73.85;84905.44;5110522;28;20194;-61
2023/06/19 02:12:23;;;;;;;7.75;6.95;;;;;;;-144.30;73.54;84931.28;5110084;28;20199;-59
2023/06/19 02:14:50;;;;;;;8.10;7.55;;;;;;;-144.30;73.55;84937.25;5109926;28;20198;-57
2023/06/19 02:17:17;;;;;;;7.65;7.05;;;;;;;-144.30;73.54;84965.06;5109857;28;20194;-61
2023/06/19 02:19:44;;;;;;;8.93;7.10;;;;;;;-144.30;73.88;84931.28;5109759;28;20229;-61
2023/06/19 02:22:11;;;;;;;6.97;6.15;;;;;;;-144.30;73.77;84903.47;5109911;28;20201;-61
2023/06/19 02:24:39;;;;;;;7.32;6.63;;;;;;;-144.30;73.58;84895.50;5109938;28;20668;-57
2023/06/19 02:27:07;;;;;;;7.38;6.68;;;;;;;-144.30;73.41;84919.34;5109742;28;20198;-61
2023/06/19 02:29:35;;;;;;;7.40;6.80;;;;;;;-144.30;73.20;84947.19;5109553;28;20191;-61
2023/06/19 02:32:02;;;;;;;6.80;6.20;;;;;;;-144.30;73.51;84959.13;5110700;28;20263;-60
2023/06/19 02:34:29;;;;;;;7.03;6.43;;;;;;;-144.30;73.65;84919.34;5113476;28;20323;-61
2023/06/19 02:36:56;;;;;;;7.15;6.68;;;;;;;-144.30;73.74;84927.31;5113835;28;20194;-61
2023/06/19 02:39:24;;;;;;;7.20;6.68;;;;;;;-144.30;73.29;84879.59;5113695;28;20223;-62
2023/06/19 02:41:50;;;;;;;6.90;6.50;;;;;;;-144.30;72.79;84933.28;5113631;28;20194;-62
2023/06/19 02:44:17;;;;;;;7.43;6.93;;;;;;;-144.30;72.86;84933.28;5113722;28;20231;-61
2023/06/19 02:46:45;;;;;;;9.63;6.90;;;;;;;-144.30;72.43;84911.41;5113360;28;20205;-62
2023/06/19 02:49:12;;;;;;;7.18;6.68;;;;;;;-144.30;72.39;84935.25;5113798;28;20197;-60
2023/06/19 02:51:39;;;;;;;8.73;7.68;;;;;;;-144.30;72.34;84939.25;5113535;28;20289;-57
2023/06/19 02:54:06;;;;;;;6.18;5.88;;;;;;;-144.30;71.99;84927.31;5113676;28;20197;-57
2023/06/19 02:56:33;;;;;;;7.18;6.63;;;;;;;-144.30;71.98;84907.44;5112928;28;20217;-56
2023/06/19 02:59:00;;;;;;;7.13;6.43;;;;;;;-144.30;71.75;84905.44;5113422;28;20198;-60
2023/06/19 03:01:27;;;;;;;8.63;6.65;;;;;;;-144.30;71.43;84887.56;5113056;28;20218;-60
2023/06/19 03:03:56;;;;;;;7.10;6.70;;;;;;;-144.30;71.77;84915.38;5113368;28;20286;-61
2023/06/19 03:06:22;;;;;;;6.57;6.18;;;;;;;-144.30;71.47;84863.72;5113396;28;20226;-61
2023/06/19 03:08:49;;;;;;;7.20;6.55;;;;;;;-144.30;71.72;84915.38;5113044;28;20692;-61
2023/06/19 03:11:16;;;;;;;6.95;6.30;;;;;;;-144.30;71.36;84869.66;5113403;27;20662;-56
2023/06/19 03:13:48;;;;;;;6.75;6.30;;;;;;;-144.30;71.74;84909.41;5113198;28;20194;-57
2023/06/19 03:16:15;;;;;;;6.90;6.40;;;;;;;-144.30;71.53;84925.31;5113273;28;20195;-55
2023/06/19 03:18:44;;;;;;;7.53;6.90;;;;;;;-144.30;71.73;84905.44;5113107;28;20644;-57
2023/06/19 03:21:12;;;;;;;7.88;7.13;;;;;;;-144.30;71.53;84839.84;5113133;28;20299;-57
2023/06/19 03:23:40;;;;;;;7.55;6.82;;;;;;;-144.30;71.17;84919.34;5112202;28;20281;-57
2023/06/19 03:26:07;;;;;;;7.82;6.30;;;;;;;-144.30;71.07;84861.72;5112108;28;20191;-56
2023/06/19 03:28:34;;;;;;;7.13;6.63;;;;;;;-144.30;70.67;84855.75;5108212;28;20297;-56
2023/06/19 03:31:01;;;;;;;6.78;6.38;;;;;;;-144.30;70.54;84873.66;5111695;28;20582;-57
2023/06/19 03:33:28;;;;;;;8.13;7.32;;;;;;;-144.30;70.35;84812.03;5107080;28;20257;-57
2023/06/19 03:35:55;;;;;;;7.47;6.97;;;;;;;-144.30;70.09;84818.00;5109256;28;20309;-58
2023/06/19 03:38:24;;;;;;;7.95;7.25;;;;;;;-144.30;70.09;84841.84;5111883;28;20708;-61
2023/06/19 03:40:51;;;;;;;7.20;6.60;;;;;;;-144.30;69.56;84855.75;5111495;28;20210;-62
2023/06/19 03:43:17;;;;;;;8.13;7.32;;;;;;;-144.30;69.40;84754.38;5110852;28;20284;-57
2023/06/19 03:45:44;;;;;;;7.65;6.70;;;;;;;-144.30;69.27;84772.28;5111095;28;20285;-58
2023/06/19 03:48:11;;;;;;;11.80;6.72;;;;;;;-144.30;68.96;84808.06;5110791;28;20193;-61
2023/06/19 03:50:38;;;;;;;7.40;6.68;;;;;;;-144.30;68.48;84818.00;5111549;28;20190;-58
2023/06/19 03:53:05;;;;;;;7.88;7.18;;;;;;;-144.30;67.70;84696.75;5111916;28;20236;-58
2023/06/19 03:55:34;;;;;;;10.05;7.28;;;;;;;-144.30;64.61;84533.78;5108870;28;20191;-57
2023/06/19 03:58:01;;;;;;;9.80;6.53;;;;;;;-144.30;61.06;84313.19;5111947;28;20648;-60
2023/06/19 04:00:28;;;;;;;6.95;6.32;;;;;;;-144.30;58.18;84142.28;5107063;28;20222;-58
2023/06/19 04:02:55;;;;;;;22.30;9.48;;;;;;;-144.30;55.59;83969.38;5112209;28;20238;-65
2023/06/19 04:05:22;;;;;;;11.32;7.18;;;;;;;-144.30;52.75;83774.66;5111266;28;20218;-58
2023/06/19 04:07:49;;;;;;;7.75;6.32;;;;;;;-144.30;50.89;83554.09;5111953;28;20553;-65
2023/06/19 04:10:16;;;;;;;6.95;6.53;;;;;;;-144.30;48.62;83462.72;5111893;28;20201;-66
2023/06/19 04:12:46;;;;;;;8.02;5.95;;;;;;;-144.30;47.28;83363.38;5111721;28;20194;-59
2023/06/19 04:15:13;;;;;;;29.98;23.67;;;;;;;-144.30;46.41;83210.38;5111361;28;20663;-63
2023/06/19 04:17:40;;;;;;;11.05;10.13;;;;;;;-144.30;45.06;83019.69;5111469;28;20229;-62
2023/06/19 04:20:10;;;;;;;8.20;7.55;;;;;;;-144.30;43.14;82832.94;5111913;28;20588;-64
2023/06/19 04:22:38;;;;;;;8.05;7.43;;;;;;;-144.30;41.96;82685.94;5110998;28;20202;-62
2023/06/19 04:25:06;;;;;;;7.28;6.72;;;;;;;-144.30;40.60;82509.16;5111191;28;20199;-63
2023/06/19 04:27:33;;;;;;;7.40;6.80;;;;;;;-144.30;39.33;82441.63;5108421;28;20271;-57
2023/06/19 04:30:01;;;;;;;6.25;5.82;;;;;;;-144.30;38.59;82258.91;5110956;28;20195;-57
2023/06/19 04:32:28;;;;;;;22.35;7.38;;;;;;;-144.30;37.71;82205.28;5111630;28;20718;-56
2023/06/19 04:34:55;;;;;;;6.70;5.97;;;;;;;-144.30;37.39;82195.34;5110412;28;20231;-57
2023/06/19 04:37:22;;;;;;;7.10;6.35;;;;;;;-144.30;37.35;82217.19;5109986;28;20626;-63
2023/06/19 04:39:49;;;;;;;6.35;5.90;;;;;;;-144.30;37.15;82209.25;5110130;28;20191;-64
2023/06/19 04:42:19;;;;;;;6.43;5.93;;;;;;;-144.30;36.82;82181.44;5110875;28;20200;-57
2023/06/19 04:44:46;;;;;;;7.07;6.28;;;;;;;-144.30;36.67;82380.06;5110653;28;20198;-63
2023/06/19 04:47:15;;;;;;;6.43;6.07;;;;;;;-144.30;36.38;82048.38;5111136;28;20202;-62
2023/06/19 04:49:42;;;;;;;7.20;6.63;;;;;;;-144.30;36.20;82050.38;5110589;28;20190;-62
2023/06/19 04:52:09;;;;;;;7.07;6.45;;;;;;;-144.30;35.57;81885.53;5110900;28;20194;-63
2023/06/19 04:54:36;;;;;;;10.43;7.18;;;;;;;-144.30;35.32;81863.69;5110276;28;20194;-62
2023/06/19 04:57:03;;;;;;;5.75;5.25;;;;;;;-144.30;34.80;81776.31;5110507;28;20194;-57
2023/06/19 04:59:31;;;;;;;6.10;5.57;;;;;;;-144.30;34.52;81667.09;5110634;28;20198;-57
2023/06/19 05:01:58;;;;;;;7.03;5.72;;;;;;;-144.30;33.66;81510.22;5110383;28;20225;-63
2023/06/19 05:04:26;;;;;;;6.15;5.75;;;;;;;-144.30;33.55;81619.44;5110649;28;20663;-58
2023/06/19 05:06:53;;;;;;;6.68;6.05;;;;;;;-144.30;33.50;81567.78;5110572;28;20198;-58
2023/06/19 05:09:20;;;;;;;6.25;5.78;;;;;;;-144.30;32.78;81434.75;5110588;28;20198;-58
2023/06/19 05:11:47;;;;;;;7.03;6.53;;;;;;;-144.30;32.63;81430.78;5110189;28;20201;-57
2023/06/19 05:14:14;;;;;;;6.13;5.63;;;;;;;-144.30;32.70;81327.53;5110366;28;20198;-63
2023/06/19 05:16:41;;;;;;;5.85;5.43;;;;;;;-144.30;32.09;81172.66;5110289;28;20651;-63
2023/06/19 05:19:08;;;;;;;8.25;7.60;;;;;;;-144.30;32.18;81222.28;5110237;28;20201;-58
2023/06/19 05:21:37;;;;;;;6.05;5.57;;;;;;;-144.30;31.09;81041.63;5110053;28;20611;-61
2023/06/19 05:24:04;;;;;;;6.25;5.72;;;;;;;-144.30;30.89;80968.16;5105668;28;20637;-64
2023/06/19 05:26:31;;;;;;;8.50;5.30;;;;;;;-144.30;31.15;81069.41;5109237;28;20197;-63
2023/06/19 05:28:57;;;;;;;6.97;6.57;;;;;;;-144.30;30.94;81057.50;5109392;28;20194;-63
2023/06/19 05:31:24;;;;;;;6.10;5.50;;;;;;;-144.30;30.91;81005.88;5109799;28;20840;-63
2023/06/19 05:33:51;;;;;;;7.07;5.35;;;;;;;-144.30;30.53;80954.25;5107786;28;20634;-63
2023/06/19 05:36:18;;;;;;;6.25;5.43;;;;;;;-144.30;31.09;81162.72;5105318;28;20195;-63
2023/06/19 05:38:46;;;;;;;6.78;6.07;;;;;;;-144.30;31.01;81156.78;5108344;28;20196;-63
2023/06/19 05:41:15;;;;;;;5.95;5.35;;;;;;;-144.30;31.76;81359.31;5109418;28;20210;-63
2023/06/19 05:43:43;;;;;;;7.25;6.55;;;;;;;-144.30;31.67;81329.53;5109301;28;20186;-63
2023/06/19 05:46:11;;;;;;;7.88;7.10;;;;;;;-144.30;32.12;81456.59;5109784;28;20198;-58
2023/06/19 05:48:38;;;;;;;7.07;5.90;;;;;;;-144.30;33.02;81547.94;5109626;28;20280;-58
2023/06/19 05:51:05;;;;;;;6.65;6.07;;;;;;;-144.30;32.39;81514.19;5109799;28;20201;-63
2023/06/19 05:53:32;;;;;;;6.45;5.88;;;;;;;-144.30;32.84;81567.78;5109570;28;20251;-63
2023/06/19 05:56:01;;;;;;;12.32;6.05;;;;;;;-144.30;32.65;81418.88;5109870;28;20247;-63
2023/06/19 05:58:28;;;;;;;5.72;5.32;;;;;;;-144.30;32.51;81464.53;5109893;28;20635;-63
2023/06/19 06:00:58;;;;;;;5.95;5.55;;;;;;;-144.30;32.17;81486.38;5109583;28;20206;-62
2023/06/19 06:03:25;;;;;;;6.55;5.43;;;;;;;-144.30;32.54;81530.06;5109815;28;20240;-62
2023/06/19 06:05:52;;;;;;;5.82;5.32;;;;;;;-144.30;32.52;81522.13;5109676;28;20206;-63
2023/06/19 06:08:19;;;;;;;8.02;5.75;;;;;;;-144.30;32.69;81601.56;5108818;28;20198;-63
2023/06/19 06:10:46;;;;;;;5.60;5.10;;;;;;;-144.30;32.78;81657.16;5109201;28;20190;-63
2023/06/19 06:13:14;;;;;;;5.28;4.95;;;;;;;-144.30;32.99;81706.81;5108971;28;20202;-63
2023/06/19 06:15:41;;;;;;;6.45;5.30;;;;;;;-144.30;33.11;81686.94;5108954;28;20588;-63
2023/06/19 06:18:08;;;;;;;5.90;5.40;;;;;;;-144.30;33.65;81790.22;5109505;28;20306;-63
2023/06/19 06:20:35;;;;;;;5.95;5.03;;;;;;;-144.30;32.93;81778.28;5109377;28;20217;-62
2023/06/19 06:23:03;;;;;;;6.65;6.05;;;;;;;-144.30;33.21;81808.09;5108959;28;20198;-63
2023/06/19 06:25:30;;;;;;;6.93;6.32;;;;;;;-144.30;33.67;81947.09;5108906;28;20186;-63
2023/06/19 06:27:57;;;;;;;5.53;4.90;;;;;;;-144.30;33.31;81869.66;5109679;28;20595;-63
2023/06/19 06:30:27;;;;;;;5.47;5.00;;;;;;;-144.30;33.29;81812.06;5109378;28;20186;-62
2023/06/19 06:32:54;;;;;;;8.35;7.65;;;;;;;-144.30;33.77;82006.69;5106761;28;20201;-58
2023/06/19 06:35:21;;;;;;;5.70;5.15;;;;;;;-144.30;33.97;81968.94;5108714;28;20702;-58
2023/06/19 06:37:49;;;;;;;5.32;4.95;;;;;;;-144.30;33.69;81820.00;5109529;28;20649;-59
2023/06/19 06:40:17;;;;;;;8.70;5.50;;;;;;;-144.30;33.99;81903.41;5109403;28;20214;-57
2023/06/19 06:42:44;;;;;;;4.78;4.55;;;;;;;-144.30;34.04;82052.34;5109064;28;20587;-59
2023/06/19 06:45:11;;;;;;;5.70;5.40;;;;;;;-144.30;34.72;82100.00;5109770;28;20194;-62
2023/06/19 06:47:41;;;;;;;5.38;5.03;;;;;;;-144.30;34.97;82189.38;5108949;28;20282;-63
2023/06/19 06:50:09;;;;;;;6.10;5.60;;;;;;;-144.30;35.34;82217.19;5105405;28;20741;-63
2023/06/19 06:52:36;;;;;;;6.10;5.60;;;;;;;-144.30;35.86;82292.66;5107864;28;20568;-58
2023/06/19 06:55:03;;;;;;;8.38;5.32;;;;;;;-144.30;36.34;82312.53;5109038;28;20692;-57
2023/06/19 06:57:30;;;;;;;5.85;5.35;;;;;;;-144.30;36.08;82284.72;5108195;28;20198;-58
2023/06/19 06:59:57;;;;;;;5.25;4.85;;;;;;;-144.30;35.99;82233.09;5086811;28;20209;-58
2023/06/19 07:02:24;;;;;;;5.70;5.40;;;;;;;-144.30;36.46;82304.59;5088321;28;20745;-58
2023/06/19 07:04:52;;;;;;;7.00;5.55;;;;;;;-144.30;37.57;82225.13;5088370;28;20199;-59
2023/06/19 07:07:19;;;;;;;6.30;5.65;;;;;;;-144.30;36.12;82233.09;5088676;28;20203;-57
2023/06/19 07:09:46;;;;;;;6.18;5.55;;;;;;;-144.30;35.65;82157.63;5095911;28;20506;-57
2023/06/19 07:12:13;;;;;;;6.57;6.13;;;;;;;-144.30;35.43;82211.25;5105056;28;20631;-61
2023/06/19 07:14:40;;;;;;;6.90;6.38;;;;;;;-144.30;35.88;82344.31;5107141;28;20222;-61
2023/06/19 07:17:07;;;;;;;7.30;6.03;;;;;;;-144.30;35.64;82278.75;5108717;28;20599;-61
2023/06/19 07:19:34;;;;;;;5.93;5.53;;;;;;;-144.30;36.14;82256.91;5107998;28;20195;-61
2023/06/19 07:22:02;;;;;;;12.88;5.63;;;;;;;-144.30;35.66;82189.38;5111513;28;20218;-61
2023/06/19 07:24:29;;;;;;;6.68;5.75;;;;;;;-144.30;34.88;82239.03;5111948;28;20277;-61
2023/06/19 07:26:56;;;;;;;5.55;5.15;;;;;;;-144.30;35.50;82153.63;5112047;28;20207;-61
2023/06/19 07:29:25;;;;;;;6.10;5.65;;;;;;;-144.30;34.57;82233.09;5111660;28;20272;-63
2023/06/19 07:31:52;;;;;;;6.80;6.28;;;;;;;-144.30;35.23;82239.03;5111783;28;20220;-61
2023/06/19 07:34:19;;;;;;;9.20;5.95;;;;;;;-144.30;34.97;82155.63;5111098;28;20218;-61
2023/06/19 07:36:46;;;;;;;7.22;6.55;;;;;;;-144.30;34.64;82179.47;5111786;28;20214;-61
2023/06/19 07:39:14;;;;;;;7.05;6.40;;;;;;;-144.30;34.63;82149.66;5111616;28;20186;-61
2023/06/19 07:41:41;;;;;;;8.00;6.25;;;;;;;-144.30;34.66;82102.00;5111194;28;20215;-61
2023/06/19 07:44:08;;;;;;;9.15;6.85;;;;;;;-144.30;34.46;82165.56;5111819;28;20198;-60
2023/06/19 07:46:35;;;;;;;9.20;8.40;;;;;;;-144.30;34.28;82032.50;5111442;28;20194;-62
2023/06/19 07:49:02;;;;;;;12.73;11.43;;;;;;;-144.30;34.26;82014.63;5111326;28;20198;-61
2023/06/19 07:51:29;;;;;;;7.57;6.70;;;;;;;-144.30;34.12;82066.25;5112031;28;20195;-62
2023/06/19 07:53:58;;;;;;;10.48;9.05;;;;;;;-144.30;34.58;82092.06;5113133;28;20201;-60
2023/06/19 07:56:26;;;;;;;5.53;5.13;;;;;;;-144.30;33.37;82024.56;5112191;28;20658;-61
2023/06/19 07:58:53;;;;;;;7.25;6.85;;;;;;;-144.30;33.13;81959.00;5111791;28;20198;-61
2023/06/19 08:01:20;;;;;;;7.70;6.47;;;;;;;-144.30;33.00;81881.56;5111500;28;20596;-57
2023/06/19 08:03:47;;;;;;;7.32;6.78;;;;;;;-144.30;33.18;81790.22;5111582;28;20206;-59
2023/06/19 08:06:13;;;;;;;11.07;9.90;;;;;;;-144.30;32.63;81613.47;5111814;28;20200;-58
2023/06/19 08:08:40;;;;;;;8.00;7.25;;;;;;;-144.30;31.94;81605.53;5111466;28;20212;-58
2023/06/19 08:11:07;;;;;;;8.75;6.22;;;;;;;-144.30;31.88;81575.75;5110817;28;20681;-58
2023/06/19 08:13:36;;;;;;;7.53;5.85;;;;;;;-144.30;31.58;81538.00;5111325;28;20186;-59
2023/06/19 08:16:02;;;;;;;41.95;9.90;;;;;;;-144.30;32.17;81605.53;5112022;28;20292;-58
2023/06/19 08:18:29;;;;;;;11.35;8.20;;;;;;;-144.30;31.78;81613.47;5106369;28;20204;-59
2023/06/19 08:20:57;;;;;;;12.68;6.65;;;;;;;-144.30;31.23;81406.97;5111533;28;20263;-58
2023/06/19 08:23:24;;;;;;;6.50;6.00;;;;;;;-144.30;30.84;81450.66;5116033;28;20240;-63
2023/06/19 08:25:52;;;;;;;12.38;7.65;;;;;;;-144.30;31.14;81476.47;5113072;28;20204;-63
2023/06/19 08:28:19;;;;;;;10.57;6.38;;;;;;;-144.30;31.61;81347.38;5111780;28;20605;-62
2023/06/19 08:30:47;;;;;;;31.02;15.75;;;;;;;-144.30;31.34;81204.44;5110948;28;20190;-61
2023/06/19 08:33:15;;;;;;;7.25;6.78;;;;;;;-144.30;30.22;81154.78;5110015;28;20186;-62
2023/06/19 08:35:42;;;;;;;7.63;5.78;;;;;;;-144.30;30.34;81210.38;5109472;28;20233;-62
2023/06/19 08:38:08;;;;;;;6.40;5.88;;;;;;;-144.30;30.13;81303.72;5111586;28;20198;-62
2023/06/19 08:40:35;;;;;;;5.45;5.03;;;;;;;-144.30;29.83;81385.13;5111843;28;20205;-61
2023/06/19 08:43:03;;;;;;;9.18;5.78;;;;;;;-144.30;31.08;81643.25;5110703;28;20772;-63
2023/06/19 08:45:31;;;;;;;6.22;5.60;;;;;;;-144.30;31.32;81655.19;5101656;28;20641;-58
2023/06/19 08:48:03;;;;;;;5.72;5.22;;;;;;;-144.30;31.27;81792.19;5111188;28;20205;-62
2023/06/19 08:50:30;;;;;;;6.22;5.32;;;;;;;-144.30;31.26;81802.13;5106984;28;20206;-62
2023/06/19 08:52:57;;;;;;;5.57;5.10;;;;;;;-144.30;31.64;81877.59;5090190;28;20197;-62
2023/06/19 08:55:24;;;;;;;5.80;5.35;;;;;;;-144.30;32.33;81970.94;5090384;28;20195;-61
2023/06/19 08:57:52;;;;;;;8.68;5.70;;;;;;;-144.30;31.94;81998.72;5090346;28;20203;-57
2023/06/19 09:00:25;;;;;;;5.50;5.10;;;;;;;-144.30;32.64;82161.59;5090389;28;20191;-62
2023/06/19 09:02:52;;;;;;;5.50;5.20;;;;;;;-144.30;33.10;82157.63;5090088;28;20777;-57
2023/06/19 09:05:20;;;;;;;7.53;6.40;;;;;;;-144.30;33.09;82098.03;5090068;28;20256;-57
2023/06/19 09:07:56;;;;;;;5.88;5.57;;;;;;;-144.30;33.33;82072.22;5090374;28;20191;-58
2023/06/19 09:10:24;;;;;;;6.10;5.70;;;;;;;-144.30;32.90;82096.03;5090831;28;20198;-57
2023/06/19 09:12:59;;;;;;;5.60;5.22;;;;;;;-144.30;32.75;82102.00;5089922;28;20578;-57
2023/06/19 09:15:29;;;;;;;6.22;5.72;;;;;;;-144.30;32.81;82066.25;5090312;28;20244;-58
2023/06/19 09:18:06;;;;;;;9.68;8.77;;;;;;;-144.30;32.58;82105.97;5110302;28;20198;-58
2023/06/19 09:20:38;;;;;;;9.68;8.27;;;;;;;-144.30;32.65;82205.28;5110048;28;20191;-62
2023/06/19 09:23:05;;;;;;;7.65;7.15;;;;;;;-144.30;32.86;82207.25;5110459;28;20218;-58
2023/06/19 09:25:32;;;;;;;11.05;10.02;;;;;;;-144.30;33.32;82121.88;5096234;28;20217;-57
2023/06/19 09:27:59;;;;;;;8.43;7.70;;;;;;;-144.30;33.33;82090.09;5100384;28;20202;-58
2023/06/19 09:30:26;;;;;;;6.88;6.25;;;;;;;-144.30;33.46;82096.03;5109607;28;20516;-62
2023/06/19 09:32:53;;;;;;;8.70;7.82;;;;;;;-144.30;32.80;82149.66;5109881;28;20566;-59
2023/06/19 09:35:20;;;;;;;7.05;6.55;;;;;;;-144.30;32.54;82117.88;5109851;28;20248;-62
2023/06/19 09:37:52;;;;;;;6.78;6.30;;;;;;;-144.30;32.38;82129.81;5109717;28;20205;-62
2023/06/19 09:40:19;;;;;;;7.85;7.32;;;;;;;-144.30;32.78;82113.91;5109391;28;20198;-62
2023/06/19 09:42:48;;;;;;;6.65;6.03;;;;;;;-144.30;32.24;82117.88;5108589;28;20237;-58
2023/06/19 09:45:19;;;;;;;6.45;5.80;;;;;;;-144.30;32.80;82193.38;5109859;28;20198;-64
2023/06/19 09:47:47;;;;;;;5.50;5.20;;;;;;;-144.30;32.44;82221.16;5109576;28;20197;-58
2023/06/19 09:50:16;;;;;;;6.75;5.82;;;;;;;-144.30;32.32;82175.50;5108912;28;20209;-58
2023/06/19 09:52:45;;;;;;;5.63;5.18;;;;;;;-144.30;32.38;82094.06;5108342;28;20190;-59
2023/06/19 09:55:15;;;;;;;5.88;5.40;;;;;;;-144.30;31.25;81955.03;5109685;28;20202;-58
2023/06/19 09:57:43;;;;;;;6.78;4.93;;;;;;;-144.30;32.23;82030.50;5109980;28;20750;-63
2023/06/19 10:00:12;;;;;;;5.55;5.25;;;;;;;-144.30;31.91;82012.63;5110156;28;20195;-58
2023/06/19 10:02:41;;;;;;;5.88;5.38;;;;;;;-144.30;31.71;82062.28;5109904;28;20210;-62
2023/06/19 10:05:14;;;;;;;5.80;5.22;;;;;;;-144.30;32.05;82018.59;5109383;28;20205;-63
2023/06/19 10:07:44;;;;;;;6.10;5.50;;;;;;;-144.30;32.11;82125.84;5110884;28;20292;-62
2023/06/19 10:10:23;;;;;;;6.20;5.63;;;;;;;-144.30;32.62;82215.22;5112600;28;20267;-63
2023/06/19 10:12:50;;;;;;;5.47;4.97;;;;;;;-144.30;32.81;82147.69;5109827;28;20186;-62
2023/06/19 10:15:18;;;;;;;5.47;5.00;;;;;;;-144.30;32.73;82221.16;5111183;28;20633;-58
2023/06/19 10:17:50;;;;;;;5.57;5.07;;;;;;;-144.30;32.70;82245.00;5109426;28;20226;-57
2023/06/19 10:20:31;;;;;;;5.38;4.97;;;;;;;-144.30;32.66;82298.63;5110715;28;20298;-62
2023/06/19 10:23:02;;;;;;;5.18;4.93;;;;;;;-144.30;33.17;82284.72;5111208;28;20219;-62
2023/06/19 10:25:33;;;;;;;7.25;6.60;;;;;;;-144.30;33.37;82080.16;5109291;28;20198;-58
2023/06/19 10:28:01;;;;;;;5.60;4.88;;;;;;;-144.30;32.63;82332.38;5109345;28;20683;-59
2023/06/19 10:30:29;;;;;;;5.68;4.95;;;;;;;-144.30;32.99;82388.00;5110188;28;20195;-62
2023/06/19 10:32:57;;;;;;;7.68;5.32;;;;;;;-144.30;32.92;82352.25;5109060;28;20609;-59
2023/06/19 10:35:24;;;;;;;4.47;4.18;;;;;;;-144.30;32.38;82447.59;5108938;28;20227;-62
2023/06/19 10:37:52;;;;;;;6.03;4.45;;;;;;;-144.30;32.47;82513.13;5109269;28;20198;-62
2023/06/19 10:40:19;;;;;;;4.70;4.40;;;;;;;-144.30;32.90;82574.72;5109367;28;20230;-57
2023/06/19 10:42:47;;;;;;;4.35;4.05;;;;;;;-144.30;33.14;82650.19;5108437;28;20689;-58
2023/06/19 10:45:17;;;;;;;5.30;4.90;;;;;;;-144.30;33.82;82687.94;5107153;28;20696;-58
2023/06/19 10:47:44;;;;;;;4.97;4.55;;;;;;;-144.30;34.07;82604.50;5109297;28;20582;-62
2023/06/19 10:50:12;;;;;;;5.45;5.00;;;;;;;-144.30;33.69;82590.59;5107346;28;20224;-61
2023/06/19 10:52:42;;;;;;;5.20;4.90;;;;;;;-144.30;33.25;82642.25;5089909;28;20196;-62
2023/06/19 10:55:11;;;;;;;4.72;4.43;;;;;;;-144.30;34.33;82586.63;5092775;28;20191;-57
2023/06/19 10:57:38;;;;;;;5.20;4.90;;;;;;;-144.30;34.07;82525.06;5109464;28;20259;-59
2023/06/19 11:00:13;;;;;;;5.65;5.03;;;;;;;-144.30;34.64;82656.16;5112163;28;20190;-58
2023/06/19 11:02:43;;;;;;;6.55;5.55;;;;;;;-144.30;34.93;82586.63;5110741;28;20209;-61
2023/06/19 11:05:11;;;;;;;5.70;5.28;;;;;;;-144.30;34.92;82626.34;5112280;28;20183;-58
2023/06/19 11:07:38;;;;;;;5.88;5.28;;;;;;;-144.30;35.29;82666.09;5112625;28;20650;-59
2023/06/19 11:10:06;;;;;;;8.55;6.88;;;;;;;-144.30;35.67;82654.16;5112404;28;20194;-62
2023/06/19 11:12:34;;;;;;;7.03;6.25;;;;;;;-144.30;35.12;82699.84;5110348;28;20689;-62
2023/06/19 11:15:05;;;;;;;6.28;5.75;;;;;;;-144.30;34.93;82638.28;5112378;28;20563;-62
2023/06/19 11:17:34;;;;;;;6.68;6.00;;;;;;;-144.30;35.00;82604.50;5109782;28;20663;-59
2023/06/19 11:20:03;;;;;;;7.93;6.22;;;;;;;-144.30;33.50;82600.53;5112092;28;20199;-59